Latest Weather Observations for Burketown Airport

IDQ60801

Issued at 11:02 am EST Saturday 1 October 2022 (issued every 10 minutes, with the page automatically refreshed every 10 minutes)

About weather observations | Map of weather stations | Latest weather observations for QLD | Other Formats
Station Details ID: 029077 Name: BURKETOWN AIRPORT Lat: -17.75 Lon: 139.54 Height: 5.7 m
Data from the previous 72 hours. | See also: Recent months at Burketown Airport
Date/Time
EST
Temp
°C
App
Temp
°C
Dew
Point
°C
Rel
Hum
%
Delta-T
°C
Wind Press
QNH
hPa
Press
MSL
hPa
Rain since
9am
mm
Dir  Spd
km/h
Gust
km/h
Spd
kts
Gust
kts
01/11:00am 33.4 27.6 2.3 14 15.8 SE 22 32 12 17 1012.5 1012.4 0.0
01/10:30am 33.3 27.4 4.1 16 15.3 SE 24 32 13 17 1012.7 1012.6 0.0
01/10:00am 31.7 25.4 3.7 17 14.4 SE 26 32 14 17 1012.9 1012.8 0.0
01/09:30am 30.1 23.8 4.0 19 13.4 SE 26 35 14 19 1013.1 1013.0 0.0
01/09:00am 29.6 23.4 4.3 20 13.0 SE 26 33 14 18 1012.9 1012.8 0.0
01/08:30am 26.9 21.5 4.6 24 11.3 SE 22 33 12 18 1013.0 1012.9 0.0
01/08:00am 26.2 20.3 4.1 24 11.1 SE 24 32 13 17 1012.8 1012.7 0.0
01/07:30am 25.5 20.5 4.6 26 10.5 SE 20 26 11 14 1012.4 1012.3 0.0
01/07:00am 23.6 20.0 5.0 30 9.3 SSE 13 15 7 8 1012.1 1012.0 0.0
01/06:30am 21.8 18.3 5.3 34 8.2 SSE 13 15 7 8 1011.9 1011.8 0.0
01/06:00am 21.9 18.3 4.9 33 8.4 SSE 13 15 7 8 1011.5 1011.4 0.0
01/05:30am 21.6 17.9 4.7 33 8.3 SSE 13 17 7 9 1011.2 1011.1 0.0
01/05:00am 22.2 18.1 4.3 31 8.8 SSE 15 17 8 9 1011.0 1010.9 0.0
01/04:30am 23.0 18.5 4.0 29 9.3 SSE 17 20 9 11 1010.7 1010.6 0.0
01/04:00am 23.8 18.8 3.7 27 9.8 SSE 19 24 10 13 1010.5 1010.4 0.0
01/03:30am 24.4 19.8 3.7 26 10.2 SSE 17 22 9 12 1010.6 1010.5 0.0
01/03:00am 25.3 20.2 3.3 24 10.8 SSE 19 24 10 13 1010.8 1010.7 0.0
01/02:30am 24.8 20.2 3.5 25 10.4 SSE 17 20 9 11 1010.8 1010.7 0.0
01/02:00am 24.7 20.5 3.9 26 10.3 SSE 15 19 8 10 1011.2 1011.1 0.0
01/01:30am 25.0 20.4 3.6 25 10.5 SSE 17 20 9 11 1011.3 1011.2 0.0
01/01:00am 25.1 20.8 3.1 24 10.7 SSE 15 19 8 10 1011.7 1011.6 0.0
01/12:30am 25.6 21.0 3.6 24 10.9 S 17 22 9 12 1011.7 1011.6 0.0
01/12:00am 25.3 20.7 3.9 25 10.6 S 17 20 9 11 1012.1 1012.0 0.0
 
Date/Time
EST
Temp
°C
App
Temp
°C
Dew
Point
°C
Rel
Hum
%
Delta-T
°C
Wind Press
QNH
hPa
Press
MSL
hPa
Rain since
9am
mm
Dir  Spd
km/h
Gust
km/h
Spd
kts
Gust
kts
30/11:30pm 25.3 20.7 3.9 25 10.6 S 17 22 9 12 1012.3 1012.2 0.0
30/11:00pm 25.3 20.8 4.4 26 10.5 SSE 17 19 9 10 1012.4 1012.3 0.0
30/10:30pm 25.6 21.9 4.7 26 10.5 SSE 13 17 7 9 1012.6 1012.5 0.0
30/10:00pm 26.8 22.3 4.0 23 11.4 S 17 20 9 11 1012.7 1012.6 0.0
30/09:30pm 27.6 22.7 4.0 22 11.9 S 19 24 10 13 1012.4 1012.3 0.0
30/09:00pm 26.9 24.7 5.2 25 11.1 SSW 6 7 3 4 1012.1 1012.0 0.0
30/08:30pm 28.1 25.6 5.0 23 11.9 SSW 7 9 4 5 1012.1 1012.0 0.0
30/08:00pm 29.2 26.8 5.3 22 12.4 SW 7 9 4 5 1011.7 1011.6 0.0
30/07:30pm 28.5 27.8 12.0 36 9.6 N 7 11 4 6 1011.4 1011.3 0.0
30/07:00pm 29.9 26.6 4.5 20 13.1 SSE 11 15 6 8 1011.0 1010.9 0.0
30/06:30pm 31.3 27.2 4.2 18 14.0 SSE 15 19 8 10 1010.6 1010.5 0.0
30/06:00pm 32.7 27.7 3.6 16 15.0 SSE 19 24 10 13 1010.1 1010.0 0.0
30/05:30pm 34.1 28.9 3.8 15 15.8 SE 20 28 11 15 1009.8 1009.7 0.0
30/05:00pm 34.8 30.3 4.4 15 16.1 SE 17 26 9 14 1009.7 1009.6 0.0
30/04:30pm 34.7 29.8 5.2 16 15.8 ESE 20 32 11 17 1009.6 1009.5 0.0
30/04:00pm 34.6 30.3 5.1 16 15.8 ESE 17 24 9 13 1009.6 1009.5 0.0
30/03:30pm 34.3 29.9 4.9 16 15.6 SE 17 24 9 13 1010.0 1009.9 0.0
30/03:00pm 34.8 29.9 5.3 16 15.9 SSE 20 28 11 15 1010.5 1010.4 0.0
30/02:30pm 34.7 29.5 3.3 14 16.3 SSE 20 30 11 16 1011.2 1011.1 0.0
30/02:00pm 34.6 30.6 6.8 18 15.3 SE 17 28 9 15 1011.8 1011.7 0.0
30/01:30pm 33.9 29.3 5.4 17 15.3 ESE 19 30 10 16 1012.4 1012.3 0.0
30/01:00pm 33.3 28.2 5.8 18 14.8 ESE 22 30 12 16 1013.1 1013.0 0.0
30/12:30pm 33.1 28.1 6.4 19 14.5 SE 22 35 12 19 1013.6 1013.5 0.0
30/12:00pm 32.9 26.9 5.5 18 14.6 SE 26 37 14 20 1014.2 1014.1 0.0
30/11:30am 32.6 26.0 4.4 17 14.7 SE 28 39 15 21 1014.8 1014.7 0.0
30/11:00am 31.1 24.1 4.0 18 13.9 SE 30 43 16 23 1015.3 1015.2 0.0
30/10:30am 30.4 23.4 4.2 19 13.5 SE 30 41 16 22 1015.6 1015.5 0.0
30/10:00am 29.1 22.6 4.6 21 12.6 SE 28 39 15 21 1015.7 1015.6 0.0
30/09:30am 27.6 21.1 4.6 23 11.7 SE 28 37 15 20 1015.9 1015.8 0.0
30/09:00am 26.1 19.7 5.1 26 10.7 SE 28 39 15 21 1016.0 1015.9 0.0
30/08:30am 24.2 18.1 6.5 32 9.1 SE 28 35 15 19 1015.8 1015.7 0.0
30/08:00am 22.6 18.1 6.8 36 8.1 SE 20 30 11 16 1015.7 1015.6 0.0
30/07:30am 20.7 16.9 7.7 43 6.7 SE 17 22 9 12 1015.4 1015.3 0.0
30/07:00am 18.4 15.2 8.4 52 5.2 SE 15 19 8 10 1014.9 1014.8 0.0
30/06:30am 17.1 13.9 8.5 57 4.4 SSE 15 17 8 9 1014.8 1014.7 0.0
30/06:00am 18.4 15.1 8.1 51 5.3 SE 15 20 8 11 1014.5 1014.4 0.0
30/05:30am 18.6 14.9 8.0 50 5.4 SE 17 20 9 11 1014.1 1014.0 0.0
30/05:00am 19.7 15.4 7.8 46 6.1 SE 20 26 11 14 1013.7 1013.6 0.0
30/04:30am 19.7 15.5 8.4 48 5.9 SE 20 24 11 13 1013.5 1013.4 0.0
30/04:00am 19.4 15.6 9.0 51 5.5 SE 19 22 10 12 1013.5 1013.4 0.0
30/03:30am 19.2 16.0 9.9 55 5.0 SE 17 20 9 11 1013.5 1013.4 0.0
30/03:00am 19.3 17.1 10.8 58 4.6 SE 13 17 7 9 1013.8 1013.7 0.0
30/02:30am 19.5 16.7 11.3 59 4.5 SSE 17 20 9 11 1013.8 1013.7 0.0
30/02:00am 19.8 17.1 11.6 59 4.5 SE 17 20 9 11 1013.9 1013.8 0.0
30/01:30am 20.3 18.0 11.8 58 4.7 SSE 15 17 8 9 1014.3 1014.2 0.0
30/01:00am 21.0 18.4 11.9 56 5.1 SE 17 20 9 11 1014.7 1014.6 0.0
30/12:30am 20.7 19.0 12.4 59 4.7 SE 13 15 7 8 1014.8 1014.7 0.0
30/12:00am 20.6 19.0 12.8 61 4.4 SE 13 13 7 7 1015.0 1014.9 0.0
 
Date/Time
EST
Temp
°C
App
Temp
°C
Dew
Point
°C
Rel
Hum
%
Delta-T
°C
Wind Press
QNH
hPa
Press
MSL
hPa
Rain since
9am
mm
Dir  Spd
km/h
Gust
km/h
Spd
kts
Gust
kts
29/11:30pm 21.2 19.9 12.6 58 4.9 SE 11 13 6 7 1015.1 1015.0 0.0
29/11:00pm 22.3 20.9 12.3 53 5.7 SE 11 15 6 8 1015.2 1015.1 0.0
29/10:30pm 23.5 21.2 11.9 48 6.6 SE 15 19 8 10 1015.1 1015.0 0.0
29/10:00pm 23.9 21.6 11.6 46 6.9 SE 15 19 8 10 1014.9 1014.8 0.0
29/09:30pm 24.3 22.0 11.9 45 7.0 SE 15 17 8 9 1014.5 1014.4 0.0
29/09:00pm 24.5 22.8 12.5 47 6.9 SE 13 15 7 8 1014.1 1014.0 0.0
29/08:30pm 24.9 23.3 12.8 47 7.0 SSE 13 15 7 8 1013.7 1013.6 0.0
29/08:00pm 25.6 24.8 14.1 49 6.8 SE 11 13 6 7 1013.3 1013.2 0.0
29/07:30pm 26.2 25.3 13.7 46 7.4 SSE 11 13 6 7 1013.1 1013.0 0.0
29/07:00pm 28.0 26.8 12.8 39 8.9 SE 11 15 6 8 1012.7 1012.6 0.0
29/06:30pm 29.8 27.1 11.8 33 10.5 SE 17 24 9 13 1012.5 1012.4 0.0
29/06:00pm 30.9 27.5 11.3 30 11.4 SE 20 28 11 15 1012.0 1011.9 0.0
29/05:30pm 31.8 28.5 11.0 28 12.0 SSE 19 28 10 15 1011.9 1011.8 0.0
29/05:00pm 32.3 28.6 11.5 28 12.2 SE 22 30 12 16 1011.7 1011.6 0.0
29/04:30pm 32.5 29.5 12.7 30 11.8 SE 20 28 11 15 1011.8 1011.7 0.0
29/04:00pm 31.8 28.8 12.6 31 11.4 SE 20 32 11 17 1011.9 1011.8 0.0
29/03:30pm 32.0 28.5 12.3 30 11.6 SSE 22 32 12 17 1012.3 1012.2 0.0
29/03:00pm 31.7 28.5 13.0 32 11.2 SE 22 33 12 18 1012.7 1012.6 0.0
29/02:30pm 31.3 27.6 14.0 35 10.5 SE 26 37 14 20 1013.1 1013.0 0.0
29/02:00pm 31.1 28.8 14.7 37 10.0 SE 20 32 11 17 1013.6 1013.5 0.0
29/01:30pm 30.3 28.1 14.8 39 9.5 SE 20 32 11 17 1014.3 1014.2 0.0
29/01:00pm 30.3 29.2 15.2 40 9.3 SE 15 32 8 17 1014.7 1014.6 0.0
29/12:30pm 30.1 27.8 15.8 42 8.9 SE 22 33 12 18 1014.9 1014.8 0.0
29/12:00pm 28.9 26.4 16.1 46 7.9 SE 24 33 13 18 1015.2 1015.1 0.0
29/11:30am 28.1 26.2 16.7 50 7.1 SE 22 32 12 17 1015.6 1015.5 0.0
29/11:00am 27.4 24.9 17.0 53 6.5 SE 26 32 14 17 1016.0 1015.9 0.0
29/10:30am 26.4 24.2 16.9 56 5.9 SE 24 32 13 17 1016.3 1016.2 0.0
29/10:00am 25.4 23.3 17.1 60 5.1 SE 24 33 13 18 1016.4 1016.3 0.0
29/09:30am 25.0 23.1 17.7 64 4.6 SE 24 30 13 16 1016.2 1016.1 0.0
29/09:00am 23.8 22.2 17.5 68 3.9 SE 22 32 12 17 1016.0 1015.9 9.6
29/08:30am 22.4 21.0 18.0 76 2.7 SE 22 28 12 15 1016.0 1015.9 9.6
29/08:00am 21.1 20.3 18.1 83 1.9 SE 19 26 10 14 1015.8 1015.7 9.6
29/07:30am 20.0 20.0 18.0 88 1.2 SE 15 19 8 10 1015.5 1015.4 9.6
29/07:00am 19.0 19.4 18.2 95 0.5 SSE 13 17 7 9 1015.3 1015.2 9.6
29/06:30am 18.5 18.8 17.9 96 0.4 SSE 13 15 7 8 1015.0 1014.9 9.6
29/06:00am 18.7 18.9 17.7 94 0.6 SE 13 17 7 9 1014.6 1014.5 9.6
29/05:30am 19.1 19.0 17.8 92 0.8 SE 15 17 8 9 1014.5 1014.4 9.6
29/05:00am 19.3 19.1 17.6 90 1.0 SSE 15 22 8 12 1014.0 1013.9 9.6
29/04:30am 19.5 18.9 17.5 88 1.2 SSE 17 20 9 11 1013.7 1013.6 9.6
29/04:00am 19.8 19.2 17.6 87 1.3 SSE 17 22 9 12 1013.9 1013.8 9.6
29/03:30am 19.8 19.0 17.9 89 1.2 S 19 24 10 13 1014.0 1013.9 9.6
29/03:00am 19.9 19.2 18.2 90 1.1 S 19 24 10 13 1013.9 1013.8 9.6
29/02:30am 20.1 19.2 18.2 89 1.2 S 20 26 11 14 1014.0 1013.9 9.6
29/02:00am 20.3 19.4 18.2 88 1.3 S 20 26 11 14 1014.0 1013.9 9.6
29/01:30am 20.3 19.6 18.2 88 1.3 SSE 19 24 10 13 1014.0 1013.9 9.6
29/01:00am 20.3 19.4 18.2 88 1.3 SSE 20 28 11 15 1014.3 1014.2 9.6
29/12:30am 20.3 19.4 18.2 88 1.3 SSE 20 26 11 14 1014.7 1014.6 9.6
29/12:00am 20.2 19.0 18.3 89 1.2 SSE 22 28 12 15 1014.8 1014.7 9.6
 
Date/Time
EST
Temp
°C
App
Temp
°C
Dew
Point
°C
Rel
Hum
%
Delta-T
°C
Wind Press
QNH
hPa
Press
MSL
hPa
Rain since
9am
mm
Dir  Spd
km/h
Gust
km/h
Spd
kts
Gust
kts
28/11:30pm 20.1 18.7 18.8 92 0.8 SSE 24 30 13 16 1015.2 1015.1 9.6
28/11:00pm 19.8 20.2 19.1 96 0.4 SSE 15 20 8 11 1015.5 1015.4 9.4
28/10:30pm 19.6 19.9 18.8 95 0.5 SE 15 20 8 11 1015.3 1015.2 9.4
28/10:00pm 19.5 18.7 18.5 94 0.6 SSE 20 26 11 14 1015.6 1015.5 9.4
28/09:30pm 19.6 18.9 18.6 94 0.6 SE 20 26 11 14 1015.6 1015.5 9.4
28/09:00pm 19.6 19.2 18.8 95 0.5 SE 19 24 10 13 1015.2 1015.1 9.4
28/08:30pm 19.3 18.9 19.0 98 0.2 SE 19 22 10 12 1014.8 1014.7 9.4
28/08:00pm 19.2 18.6 18.9 98 0.2 SE 20 28 11 15 1014.3 1014.2 9.0
28/07:30pm 19.2 18.7 19.0 99 0.1 SE 20 28 11 15 1014.4 1014.3 8.4
28/07:00pm 19.0 17.6 18.8 99 0.1 ESE 24 30 13 16 1014.0 1013.9 7.6
28/06:38pm 18.9 16.7 18.7 99 0.1 SE 28 35 15 19 1013.9 1013.8 6.8
28/06:30pm 18.8 17.0 18.8 100 0.0 SE 26 33 14 18 1014.0 1013.9 6.8
28/06:15pm 18.6 15.0 18.6 100 0.0 SSE 35 52 19 28 1013.9 1013.8 4.4
28/06:07pm 18.6 14.1 18.3 98 0.2 SSE 39 54 21 29 1013.9 1013.8 1.2
28/06:00pm 20.4 15.6 16.6 79 2.3 SSE 37 54 20 29 1013.9 1013.8 0.0
28/05:31pm 22.3 15.8 15.2 64 4.2 SSE 43 61 23 33 1013.4 1013.3 0.0
28/05:30pm 22.2 15.6 15.3 65 4.1 SSE 44 61 24 33 1013.3 1013.2 0.0
28/05:08pm 26.2 21.2 14.0 47 7.2 S 33 59 18 32 1012.8 1012.7 0.0
28/05:00pm 27.1 21.4 13.1 42 8.2 S 35 50 19 27 1012.6 1012.5 0.0
28/04:30pm 28.9 22.8 11.9 35 9.9 SSE 35 48 19 26 1012.2 1012.1 0.0
28/04:00pm 29.0 22.9 11.6 34 10.0 SSE 35 44 19 24 1012.2 1012.1 0.0
28/03:43pm 29.9 24.3 11.4 32 10.7 SSE 32 52 17 28 1012.1 1012.0 0.0
28/03:30pm 29.9 23.7 11.4 32 10.7 SSE 35 48 19 26 1012.2 1012.1 0.0
28/03:00pm 30.2 23.7 11.7 32 10.8 SSE 37 48 20 26 1012.1 1012.0 0.0
28/02:30pm 30.0 23.4 11.5 32 10.7 SSE 37 50 20 27 1012.5 1012.4 0.0
28/02:08pm 30.4 23.8 11.4 31 11.0 SSE 37 57 20 31 1012.5 1012.4 0.0
28/02:00pm 30.2 23.7 11.7 32 10.8 SSE 37 50 20 27 1012.7 1012.6 0.0
28/01:30pm 30.6 24.4 11.5 30 11.1 SE 35 50 19 27 1012.7 1012.6 0.0
28/01:00pm 30.5 23.6 11.5 31 11.0 SSE 39 57 21 31 1013.0 1012.9 0.0
28/12:59pm 30.5 23.4 11.0 30 11.2 SSE 39 57 21 31 1013.0 1012.9 0.0
28/12:30pm 31.1 24.0 11.0 29 11.6 SSE 39 50 21 27 1013.1 1013.0 0.0
28/12:12pm 30.8 24.7 11.7 31 11.1 SSE 35 54 19 29 1013.3 1013.2 0.0
28/12:00pm 30.1 23.1 11.1 31 10.9 SSE 39 52 21 28 1013.4 1013.3 0.0
28/11:30am 30.3 24.1 11.3 31 11.0 SSE 35 52 19 28 1014.1 1014.0 0.0

Other formats

Comma delimited format used in spreadsheet applications
http://www.bom.gov.au/fwo/IDQ60801/IDQ60801.94260.axf

JavaScript Object Notation format (JSON) in row-major order
http://www.bom.gov.au/fwo/IDQ60801/IDQ60801.94260.json

Data quality

Most of these data are generated automatically and are frequently updated. Quality checks on data are not normally performed. It is possible for incorrect values to appear. Refer to information at About Latest Weather Observations and please check the disclaimer before using these data.